Weather observations for the past three days for
Montauk, Montauk Airport
Metric (Imperial)
Date Time (edt) Wind (kph) Vis. (km) Weather Sky Cond. Temperature (ºC) Relative Humidity Wind Chill (°C) Heat Index (°C) Pressure Precipitation (cm)
Air Dwpt 6 hour altimeter (cm) sea level (mb) 1 hr 3 hr 6 hr
Max. Min.
10 12:54 S 9 0.00 NULL NULL 14.4 12.2 87% 76.07 1014.1
10 11:54 Vrbl 6 0.00 NULL NULL 12.8 11.1 90% 76.1 1014.6
10 10:54 SE 7 0.00 NULL NULL 12.8 11.7 93% 76.07 1014.1
10 09:54 Vrbl 6 0.00 NULL NULL 12.8 12.2 96% 76.02 1013.4
10 08:54 Calm 0.00 NULL NULL 12.8 12.8 100% 76.02 1013.5
10 07:54 Calm 0.00 NULL NULL 12.2 12.2 12.2 10.6 100% 76.02 1013.5
10 06:54 Calm 0.00 NULL NULL 10.6 10.6 100% 76.02 1013.4
10 05:54 Calm 0.00 NULL NULL 11.7 11.7 100% 75.97 1012.7
10 04:54 Calm 0.00 NULL NULL 11.1 11.1 100% 75.95 1012.5
10 03:54 Calm 0.00 NULL NULL 11.7 11.7 100% 75.95 1012.3
10 02:54 Calm 0.00 NULL NULL 11.7 11.7 100% 75.92 1012.1
10 01:54 Calm 0.00 NULL NULL 11.1 10.6 11.7 10.6 97% 75.92 1012.0
10 00:54 Calm 0.00 NULL NULL 11.1 10.6 97% 75.92 1012.0
09 23:54 Calm 0.00 NULL NULL 10.6 10 96% 75.9 1011.9
09 22:54 Vrbl 6 0.00 NULL NULL 10.6 10 96% 75.92 1012.0
09 21:54 SE 9 0.00 NULL NULL 11.1 10 93% 75.9 1011.7
09 20:54 Calm 0.00 NULL NULL 11.7 10 89% 75.92 1012.0
09 19:54 Vrbl 11 0.00 NULL NULL 11.1 10 14.4 11.1 93% 75.9 1011.8 0.1 0.43
09 18:54 Vrbl 11 0.00 NULL NULL 11.7 9.4 86% 75.97 1012.7 0.28
09 17:54 S 20 G 50 0.00 NULL NULL 12.8 10.6 87% 75.95 1012.5 0.05
09 16:54 S 13 0.00 NULL NULL 12.8 10 83% 75.97 1012.6
09 15:54 S 13 0.00 NULL NULL 12.8 10 83% 75.97 1012.6
09 14:54 S 15 G 39 0.00 NULL NULL 13.3 10 81% 76 1013.0
09 13:54 Vrbl 9 0.00 NULL NULL 14.4 9.4 15 11.1 72% 75.97 1012.9
09 12:54 Vrbl 11 0.00 NULL NULL 14.4 9.4 72% 76.02 1013.6
09 11:54 Vrbl 11 0.00 NULL NULL 12.8 9.4 80% 76.07 1014.0
09 10:54 S 13 0.00 NULL NULL 12.8 8.9 77% 76.07 1014.3
09 09:54 Vrbl 9 0.00 NULL NULL 12.8 8.3 74% 76.1 1014.4
09 08:54 Vrbl 6 0.00 NULL NULL 12.8 8.3 74% 76.1 1014.4
09 07:54 S 7 0.00 NULL NULL 11.1 8.3 11.7 10 83% 76.1 1014.5
09 06:54 Vrbl 6 0.00 NULL NULL 10.6 8.3 86% 76.1 1014.5
09 05:54 Calm 0.00 NULL NULL 10.6 8.3 86% 76.1 1014.3
09 04:54 Calm 0.00 NULL NULL 10 7.8 86% 76.07 1014.1
09 03:54 Vrbl 6 0.00 NULL NULL 10 7.8 86% 76.07 1014.2
09 02:54 Vrbl 6 0.00 NULL NULL 10.6 7.8 83% 76.07 1014.3
09 01:54 Calm 0.00 NULL NULL 10.6 7.8 12.2 10 83% 76.07 1014.0
09 00:54 S 6 0.00 NULL NULL 11.1 7.2 77% 76.07 1014.3
08 23:54 SW 7 0.00 NULL NULL 11.1 7.2 77% 76.1 1014.4
08 22:54 SW 7 0.00 NULL NULL 10.6 6.1 74% 76.07 1014.3
08 21:54 SW 13 0.00 NULL NULL 10.6 6.1 74% 76.07 1014.1
08 20:54 SW 15 0.00 NULL NULL 11.1 5.6 69% 76 1013.2
08 19:54 SW 9 0.00 NULL NULL 12.2 5 16.1 12.2 62% 75.95 1012.4
08 18:54 SW 9 0.00 NULL NULL 13.3 4.4 55% 75.9 1011.7
08 17:54 W 9 0.00 NULL NULL 13.3 5 57% 75.87 1011.5
08 16:54 NW 13 G 31 0.00 NULL NULL 12.8 5 59% 75.87 1011.5
08 15:54 W 17 G 33 0.00 NULL NULL 15.6 3.9 46% 75.82 1010.8
08 14:54 SW 15 G 35 0.00 NULL NULL 14.4 4.4 51% 75.82 1010.9
08 13:54 SW 17 G 28 0.00 NULL NULL 15.6 4.4 15.6 10 48% 75.82 1010.8
08 12:54 SW 19 G 33 0.00 NULL NULL 15 5 51% 75.84 1011.1
08 11:54 W 11 0.00 NULL NULL 13.9 2.2 45% 75.87 1011.6
08 10:54 W 13 0.00 NULL NULL 13.3 2.2 47% 75.92 1012.0
08 09:54 W 11 0.00 NULL NULL 12.2 2.8 53% 75.92 1012.2
08 08:54 W 6 0.00 NULL NULL 10 3.9 66% 75.92 1012.2
08 07:54 NW 6 0.00 NULL NULL 10 3.3 10 5.6 63% 75.9 1011.8
08 06:54 Calm 0.00 NULL NULL 10 2.8 61% 75.87 1011.4
08 05:54 W 9 0.00 NULL NULL 10 2.2 59% 9 75.84 1011.0
08 04:54 NW 13 0.00 NULL NULL 9.4 1.7 59% 8 75.79 1010.5
08 03:54 Vrbl 6 0.00 NULL NULL 8.9 3.9 71% 75.77 1009.9
08 02:54 Calm 0.00 NULL NULL 6.1 3.3 82% 75.69 1009.1
08 01:54 Calm 0.00 NULL NULL 9.4 2.8 12.8 9.4 64% 75.67 1008.8
08 00:54 N 7 0.00 NULL NULL 10 3.3 63% 9 75.69 1009.0
07 23:54 NW 7 0.00 NULL NULL 10.6 3.3 61% 75.69 1008.9
07 22:54 W 6 0.00 NULL NULL 10.6 5.6 71% 75.69 1009.1
07 21:54 Calm 0.00 NULL NULL 11.1 6.7 75% 75.74 1009.6
07 20:54 Calm 0.00 NULL NULL 11.7 5 64% 75.69 1009.0
07 19:54 W 7 0.00 NULL NULL 12.8 2.8 16.1 12.8 51% 75.67 1008.6
07 18:54 W 11 0.00 NULL NULL 13.9 2.8 47% 75.59 1007.8
07 17:54 W 13 0.00 NULL NULL 15 1.7 41% 75.57 1007.3
07 16:54 W 11 G 28 0.00 NULL NULL 15.6 2.2 41% 75.54 1007.0
07 15:54 W 15 0.00 NULL NULL 16.1 -0.6 32% 75.54 1007.0
07 14:54 W 15 0.00 NULL NULL 15.6 -0.6 33% 75.59 1007.6
07 13:54 W 15 G 31 0.00 NULL NULL 14.4 0 15 9.4 38% 75.64 1008.3 0.03
Date Time (edt) Wind (kph) Vis. (km) Weather Sky Cond. Air Dwpt Max. Min. Relative Humidity Wind Chill (°C) Heat Index (°C) altimeter (cm) sea level (mb) 1 hr 3 hr 6 hr
6 hour
Temperature (ºC) Pressure Precipitation (cm)